sensor_id;sensor_type;location;lat;lon;timestamp;temperature;humidity
19174;DHT22;9719;49.322;8.536;2022-07-15T00:04:07;20.20;51.10
19174;DHT22;9719;49.322;8.536;2022-07-15T00:09:10;20.10;51.50
19174;DHT22;9719;49.322;8.536;2022-07-15T00:14:12;20.00;51.30
19174;DHT22;9719;49.322;8.536;2022-07-15T00:19:15;19.80;52.00
19174;DHT22;9719;49.322;8.536;2022-07-15T00:24:17;19.70;52.00
19174;DHT22;9719;49.322;8.536;2022-07-15T00:29:19;19.40;52.10
19174;DHT22;9719;49.322;8.536;2022-07-15T00:34:23;19.20;52.60
19174;DHT22;9719;49.322;8.536;2022-07-15T00:39:25;19.00;53.50
19174;DHT22;9719;49.322;8.536;2022-07-15T00:44:27;18.80;53.90
19174;DHT22;9719;49.322;8.536;2022-07-15T00:49:30;18.70;54.10
19174;DHT22;9719;49.322;8.536;2022-07-15T00:54:33;18.60;54.80
19174;DHT22;9719;49.322;8.536;2022-07-15T00:59:35;18.50;54.80
19174;DHT22;9719;49.322;8.536;2022-07-15T01:04:39;18.40;55.00
19174;DHT22;9719;49.322;8.536;2022-07-15T01:09:42;18.30;55.40
19174;DHT22;9719;49.322;8.536;2022-07-15T01:14:44;18.20;55.60
19174;DHT22;9719;49.322;8.536;2022-07-15T01:19:47;18.00;55.70
19174;DHT22;9719;49.322;8.536;2022-07-15T01:24:51;17.80;56.20
19174;DHT22;9719;49.322;8.536;2022-07-15T01:29:53;17.60;56.70
19174;DHT22;9719;49.322;8.536;2022-07-15T01:34:56;17.50;56.40
19174;DHT22;9719;49.322;8.536;2022-07-15T01:39:59;17.40;56.90
19174;DHT22;9719;49.322;8.536;2022-07-15T01:45:02;17.30;57.10
19174;DHT22;9719;49.322;8.536;2022-07-15T01:50:05;17.20;57.40
19174;DHT22;9719;49.322;8.536;2022-07-15T01:55:09;17.10;58.30
19174;DHT22;9719;49.322;8.536;2022-07-15T02:00:12;17.00;58.60
19174;DHT22;9719;49.322;8.536;2022-07-15T02:05:16;17.00;59.00
19174;DHT22;9719;49.322;8.536;2022-07-15T02:10:20;16.90;59.30
19174;DHT22;9719;49.322;8.536;2022-07-15T02:15:22;16.90;60.00
19174;DHT22;9719;49.322;8.536;2022-07-15T02:20:25;17.00;60.30
19174;DHT22;9719;49.322;8.536;2022-07-15T02:25:30;16.90;60.30
19174;DHT22;9719;49.322;8.536;2022-07-15T02:30:34;16.80;60.30
19174;DHT22;9719;49.322;8.536;2022-07-15T02:35:37;16.70;60.70
19174;DHT22;9719;49.322;8.536;2022-07-15T02:40:40;16.60;61.10
19174;DHT22;9719;49.322;8.536;2022-07-15T02:45:42;16.50;61.80
19174;DHT22;9719;49.322;8.536;2022-07-15T02:50:44;16.50;62.10
19174;DHT22;9719;49.322;8.536;2022-07-15T02:55:48;16.50;62.20
19174;DHT22;9719;49.322;8.536;2022-07-15T03:00:50;16.40;62.10
19174;DHT22;9719;49.322;8.536;2022-07-15T03:05:52;16.30;62.50
19174;DHT22;9719;49.322;8.536;2022-07-15T03:10:56;16.10;63.00
19174;DHT22;9719;49.322;8.536;2022-07-15T03:15:58;16.00;63.40
19174;DHT22;9719;49.322;8.536;2022-07-15T03:21:00;15.90;63.70
19174;DHT22;9719;49.322;8.536;2022-07-15T03:26:04;15.80;63.90
19174;DHT22;9719;49.322;8.536;2022-07-15T03:31:06;15.80;64.50
19174;DHT22;9719;49.322;8.536;2022-07-15T03:36:08;15.80;64.60
19174;DHT22;9719;49.322;8.536;2022-07-15T03:41:11;15.90;65.00
19174;DHT22;9719;49.322;8.536;2022-07-15T03:46:13;15.90;65.30
19174;DHT22;9719;49.322;8.536;2022-07-15T03:51:16;16.00;65.20
19174;DHT22;9719;49.322;8.536;2022-07-15T03:56:19;16.00;65.40
19174;DHT22;9719;49.322;8.536;2022-07-15T04:01:21;16.00;65.60
19174;DHT22;9719;49.322;8.536;2022-07-15T04:06:23;16.00;65.30
19174;DHT22;9719;49.322;8.536;2022-07-15T04:11:27;15.90;65.60
19174;DHT22;9719;49.322;8.536;2022-07-15T04:16:28;15.80;65.50
19174;DHT22;9719;49.322;8.536;2022-07-15T04:21:30;15.90;65.80
19174;DHT22;9719;49.322;8.536;2022-07-15T04:26:35;16.00;65.80
19174;DHT22;9719;49.322;8.536;2022-07-15T04:31:37;16.10;66.00
19174;DHT22;9719;49.322;8.536;2022-07-15T04:36:39;16.20;65.80
19174;DHT22;9719;49.322;8.536;2022-07-15T04:41:42;16.40;65.60
19174;DHT22;9719;49.322;8.536;2022-07-15T04:46:44;16.60;65.70
19174;DHT22;9719;49.322;8.536;2022-07-15T04:51:46;16.80;65.30
19174;DHT22;9719;49.322;8.536;2022-07-15T04:56:49;16.90;65.10
19174;DHT22;9719;49.322;8.536;2022-07-15T05:01:51;17.10;65.00
19174;DHT22;9719;49.322;8.536;2022-07-15T05:06:53;17.40;64.60
19174;DHT22;9719;49.322;8.536;2022-07-15T05:11:58;17.60;64.50
19174;DHT22;9719;49.322;8.536;2022-07-15T05:17:00;17.80;64.10
19174;DHT22;9719;49.322;8.536;2022-07-15T05:22:03;18.00;63.80
19174;DHT22;9719;49.322;8.536;2022-07-15T05:27:06;18.10;63.20
19174;DHT22;9719;49.322;8.536;2022-07-15T05:32:08;18.30;63.10
19174;DHT22;9719;49.322;8.536;2022-07-15T05:37:10;18.60;62.60
19174;DHT22;9719;49.322;8.536;2022-07-15T05:42:14;18.70;62.00
19174;DHT22;9719;49.322;8.536;2022-07-15T05:47:16;18.90;61.60
19174;DHT22;9719;49.322;8.536;2022-07-15T05:52:18;19.10;61.20
19174;DHT22;9719;49.322;8.536;2022-07-15T05:57:21;19.40;60.40
19174;DHT22;9719;49.322;8.536;2022-07-15T06:02:23;19.60;60.10
19174;DHT22;9719;49.322;8.536;2022-07-15T06:07:25;19.90;59.40
19174;DHT22;9719;49.322;8.536;2022-07-15T06:12:29;20.30;58.10
19174;DHT22;9719;49.322;8.536;2022-07-15T06:17:31;20.70;58.20
19174;DHT22;9719;49.322;8.536;2022-07-15T06:22:34;21.00;57.70
19174;DHT22;9719;49.322;8.536;2022-07-15T06:27:37;21.10;57.40
19174;DHT22;9719;49.322;8.536;2022-07-15T06:32:40;21.10;57.00
19174;DHT22;9719;49.322;8.536;2022-07-15T06:37:42;21.10;56.10
19174;DHT22;9719;49.322;8.536;2022-07-15T06:42:45;21.20;56.10
19174;DHT22;9719;49.322;8.536;2022-07-15T06:47:47;21.40;56.00
19174;DHT22;9719;49.322;8.536;2022-07-15T06:52:49;21.30;54.70
19174;DHT22;9719;49.322;8.536;2022-07-15T06:57:52;22.00;54.50
19174;DHT22;9719;49.322;8.536;2022-07-15T07:02:55;22.10;53.90
19174;DHT22;9719;49.322;8.536;2022-07-15T07:07:56;22.30;53.30
19174;DHT22;9719;49.322;8.536;2022-07-15T07:13:00;22.40;52.70
19174;DHT22;9719;49.322;8.536;2022-07-15T07:18:02;22.40;52.00
19174;DHT22;9719;49.322;8.536;2022-07-15T07:23:04;22.50;51.40
19174;DHT22;9719;49.322;8.536;2022-07-15T07:28:07;22.50;51.10
19174;DHT22;9719;49.322;8.536;2022-07-15T07:33:09;22.50;50.90
19174;DHT22;9719;49.322;8.536;2022-07-15T07:38:12;22.50;50.40
19174;DHT22;9719;49.322;8.536;2022-07-15T07:43:16;22.60;50.20
19174;DHT22;9719;49.322;8.536;2022-07-15T07:48:19;22.60;50.00
19174;DHT22;9719;49.322;8.536;2022-07-15T07:53:21;22.70;50.00
19174;DHT22;9719;49.322;8.536;2022-07-15T07:58:25;22.70;50.00
19174;DHT22;9719;49.322;8.536;2022-07-15T08:03:26;22.90;49.90
19174;DHT22;9719;49.322;8.536;2022-07-15T08:08:29;23.10;49.60
19174;DHT22;9719;49.322;8.536;2022-07-15T08:13:32;23.10;48.90
19174;DHT22;9719;49.322;8.536;2022-07-15T08:18:34;23.10;49.40
19174;DHT22;9719;49.322;8.536;2022-07-15T08:23:36;23.40;48.60
19174;DHT22;9719;49.322;8.536;2022-07-15T08:28:39;23.40;48.40
19174;DHT22;9719;49.322;8.536;2022-07-15T08:33:41;23.50;48.40
19174;DHT22;9719;49.322;8.536;2022-07-15T08:38:43;23.70;47.70
19174;DHT22;9719;49.322;8.536;2022-07-15T08:43:47;23.90;47.20
19174;DHT22;9719;49.322;8.536;2022-07-15T08:48:50;24.10;46.70
19174;DHT22;9719;49.322;8.536;2022-07-15T08:53:52;24.20;46.40
19174;DHT22;9719;49.322;8.536;2022-07-15T08:58:57;24.30;46.50
19174;DHT22;9719;49.322;8.536;2022-07-15T09:03:59;24.50;46.00
19174;DHT22;9719;49.322;8.536;2022-07-15T09:09:27;24.50;45.90
19174;DHT22;9719;49.322;8.536;2022-07-15T09:14:32;24.70;46.10
19174;DHT22;9719;49.322;8.536;2022-07-15T09:19:58;25.00;45.40
19174;DHT22;9719;49.322;8.536;2022-07-15T09:25:06;25.30;45.20
19174;DHT22;9719;49.322;8.536;2022-07-15T09:30:22;26.20;43.80
19174;DHT22;9719;49.322;8.536;2022-07-15T09:35:42;27.60;42.40
19174;DHT22;9719;49.322;8.536;2022-07-15T09:41:02;29.20;39.80
19174;DHT22;9719;49.322;8.536;2022-07-15T09:46:05;30.60;37.90
19174;DHT22;9719;49.322;8.536;2022-07-15T09:51:08;32.00;35.80
19174;DHT22;9719;49.322;8.536;2022-07-15T09:56:12;32.90;33.30
19174;DHT22;9719;49.322;8.536;2022-07-15T10:01:15;33.60;32.20
19174;DHT22;9719;49.322;8.536;2022-07-15T10:06:17;34.00;30.10
19174;DHT22;9719;49.322;8.536;2022-07-15T10:11:20;34.30;29.20
19174;DHT22;9719;49.322;8.536;2022-07-15T10:16:51;34.70;27.60
19174;DHT22;9719;49.322;8.536;2022-07-15T10:22:05;34.50;27.30
19174;DHT22;9719;49.322;8.536;2022-07-15T10:27:21;34.00;27.30
19174;DHT22;9719;49.322;8.536;2022-07-15T10:32:28;33.60;27.10
19174;DHT22;9719;49.322;8.536;2022-07-15T10:37:30;32.90;26.10
19174;DHT22;9719;49.322;8.536;2022-07-15T10:42:56;32.20;27.40
19174;DHT22;9719;49.322;8.536;2022-07-15T10:48:28;31.70;28.10
19174;DHT22;9719;49.322;8.536;2022-07-15T10:53:30;31.30;28.50
19174;DHT22;9719;49.322;8.536;2022-07-15T10:58:33;31.10;28.20
19174;DHT22;9719;49.322;8.536;2022-07-15T11:04:08;30.70;28.20
19174;DHT22;9719;49.322;8.536;2022-07-15T11:09:11;30.40;29.10
19174;DHT22;9719;49.322;8.536;2022-07-15T11:14:48;30.00;29.40
19174;DHT22;9719;49.322;8.536;2022-07-15T11:19:54;29.80;29.50
19174;DHT22;9719;49.322;8.536;2022-07-15T11:24:57;29.80;30.00
19174;DHT22;9719;49.322;8.536;2022-07-15T11:30:02;29.60;30.50
19174;DHT22;9719;49.322;8.536;2022-07-15T11:35:07;29.50;30.50
19174;DHT22;9719;49.322;8.536;2022-07-15T11:40:11;29.40;30.80
19174;DHT22;9719;49.322;8.536;2022-07-15T11:45:35;29.20;30.70
19174;DHT22;9719;49.322;8.536;2022-07-15T11:50:50;29.00;31.40
19174;DHT22;9719;49.322;8.536;2022-07-15T11:55:55;28.90;31.60
19174;DHT22;9719;49.322;8.536;2022-07-15T12:00:57;28.90;31.70
19174;DHT22;9719;49.322;8.536;2022-07-15T12:06:07;29.00;31.40
19174;DHT22;9719;49.322;8.536;2022-07-15T12:11:21;29.00;31.50
19174;DHT22;9719;49.322;8.536;2022-07-15T12:16:26;29.10;31.30
19174;DHT22;9719;49.322;8.536;2022-07-15T12:21:30;29.20;31.00
19174;DHT22;9719;49.322;8.536;2022-07-15T12:26:33;29.20;31.20
19174;DHT22;9719;49.322;8.536;2022-07-15T12:31:37;29.20;31.30
19174;DHT22;9719;49.322;8.536;2022-07-15T12:36:54;29.20;31.00
19174;DHT22;9719;49.322;8.536;2022-07-15T12:41:59;29.10;31.20
19174;DHT22;9719;49.322;8.536;2022-07-15T12:47:04;29.10;31.10
19174;DHT22;9719;49.322;8.536;2022-07-15T12:52:20;29.00;31.50
19174;DHT22;9719;49.322;8.536;2022-07-15T12:57:27;29.10;31.60
19174;DHT22;9719;49.322;8.536;2022-07-15T13:02:29;29.20;31.20
19174;DHT22;9719;49.322;8.536;2022-07-15T13:07:33;29.10;31.60
19174;DHT22;9719;49.322;8.536;2022-07-15T13:12:35;29.10;31.90
19174;DHT22;9719;49.322;8.536;2022-07-15T13:17:37;29.10;31.30
19174;DHT22;9719;49.322;8.536;2022-07-15T13:22:41;29.10;31.00
19174;DHT22;9719;49.322;8.536;2022-07-15T13:27:43;29.10;30.90
19174;DHT22;9719;49.322;8.536;2022-07-15T13:32:45;28.90;30.60
19174;DHT22;9719;49.322;8.536;2022-07-15T13:37:48;28.80;30.90
19174;DHT22;9719;49.322;8.536;2022-07-15T13:42:51;28.70;31.50
19174;DHT22;9719;49.322;8.536;2022-07-15T13:47:53;28.70;31.20
19174;DHT22;9719;49.322;8.536;2022-07-15T13:52:57;28.60;31.00
19174;DHT22;9719;49.322;8.536;2022-07-15T13:58:00;28.50;31.20
19174;DHT22;9719;49.322;8.536;2022-07-15T14:03:02;28.40;31.90
19174;DHT22;9719;49.322;8.536;2022-07-15T14:08:05;28.30;31.70
19174;DHT22;9719;49.322;8.536;2022-07-15T14:13:07;28.30;31.90
19174;DHT22;9719;49.322;8.536;2022-07-15T14:18:09;28.30;32.00
19174;DHT22;9719;49.322;8.536;2022-07-15T14:23:12;28.30;31.90
19174;DHT22;9719;49.322;8.536;2022-07-15T14:28:14;28.30;31.90
19174;DHT22;9719;49.322;8.536;2022-07-15T14:33:16;28.20;32.10
19174;DHT22;9719;49.322;8.536;2022-07-15T14:38:20;28.10;32.70
19174;DHT22;9719;49.322;8.536;2022-07-15T14:43:21;28.10;32.90
19174;DHT22;9719;49.322;8.536;2022-07-15T14:48:24;28.10;32.70
19174;DHT22;9719;49.322;8.536;2022-07-15T14:53:28;28.10;32.70
19174;DHT22;9719;49.322;8.536;2022-07-15T14:58:31;28.00;32.80
19174;DHT22;9719;49.322;8.536;2022-07-15T15:03:33;27.80;32.20
19174;DHT22;9719;49.322;8.536;2022-07-15T15:08:36;27.70;32.90
19174;DHT22;9719;49.322;8.536;2022-07-15T15:13:38;27.90;32.50
19174;DHT22;9719;49.322;8.536;2022-07-15T15:18:40;27.80;33.00
19174;DHT22;9719;49.322;8.536;2022-07-15T15:23:44;27.70;33.40
19174;DHT22;9719;49.322;8.536;2022-07-15T15:28:46;27.70;33.20
19174;DHT22;9719;49.322;8.536;2022-07-15T15:33:48;27.60;33.70
19174;DHT22;9719;49.322;8.536;2022-07-15T15:38:51;27.70;33.30
19174;DHT22;9719;49.322;8.536;2022-07-15T15:43:53;26.90;34.20
19174;DHT22;9719;49.322;8.536;2022-07-15T15:48:56;26.40;35.30
19174;DHT22;9719;49.322;8.536;2022-07-15T15:54:00;26.30;35.50
19174;DHT22;9719;49.322;8.536;2022-07-15T15:59:02;26.30;35.50
19174;DHT22;9719;49.322;8.536;2022-07-15T16:04:04;26.30;35.30
19174;DHT22;9719;49.322;8.536;2022-07-15T16:09:07;26.30;35.10
19174;DHT22;9719;49.322;8.536;2022-07-15T16:14:09;26.40;35.00
19174;DHT22;9719;49.322;8.536;2022-07-15T16:19:11;26.40;35.10
19174;DHT22;9719;49.322;8.536;2022-07-15T16:24:15;26.50;35.30
19174;DHT22;9719;49.322;8.536;2022-07-15T16:29:17;26.40;34.60
19174;DHT22;9719;49.322;8.536;2022-07-15T16:34:19;26.40;34.70
19174;DHT22;9719;49.322;8.536;2022-07-15T16:39:22;26.40;34.60
19174;DHT22;9719;49.322;8.536;2022-07-15T16:44:24;26.40;34.60
19174;DHT22;9719;49.322;8.536;2022-07-15T16:49:26;26.50;34.60
19174;DHT22;9719;49.322;8.536;2022-07-15T16:54:32;26.50;34.50
19174;DHT22;9719;49.322;8.536;2022-07-15T16:59:34;26.50;34.60
19174;DHT22;9719;49.322;8.536;2022-07-15T17:04:37;26.40;34.60
19174;DHT22;9719;49.322;8.536;2022-07-15T17:09:41;26.40;34.30
19174;DHT22;9719;49.322;8.536;2022-07-15T17:14:43;26.20;34.60
19174;DHT22;9719;49.322;8.536;2022-07-15T17:19:45;26.20;34.20
19174;DHT22;9719;49.322;8.536;2022-07-15T17:24:48;26.10;34.60
19174;DHT22;9719;49.322;8.536;2022-07-15T17:29:51;26.00;34.50
19174;DHT22;9719;49.322;8.536;2022-07-15T17:34:53;26.00;34.60
19174;DHT22;9719;49.322;8.536;2022-07-15T17:41:33;26.00;34.60
19174;DHT22;9719;49.322;8.536;2022-07-15T17:46:35;25.90;34.10
19174;DHT22;9719;49.322;8.536;2022-07-15T17:51:37;25.80;34.20
19174;DHT22;9719;49.322;8.536;2022-07-15T17:56:41;25.70;34.20
19174;DHT22;9719;49.322;8.536;2022-07-15T18:01:43;25.60;34.20
19174;DHT22;9719;49.322;8.536;2022-07-15T18:06:45;25.50;34.30
19174;DHT22;9719;49.322;8.536;2022-07-15T18:11:49;25.40;34.50
19174;DHT22;9719;49.322;8.536;2022-07-15T18:21:54;25.30;34.80
19174;DHT22;9719;49.322;8.536;2022-07-15T18:26:58;25.20;34.80
19174;DHT22;9719;49.322;8.536;2022-07-15T18:32:00;25.10;35.00
19174;DHT22;9719;49.322;8.536;2022-07-15T18:37:03;25.00;34.90
19174;DHT22;9719;49.322;8.536;2022-07-15T18:42:06;24.80;35.00
19174;DHT22;9719;49.322;8.536;2022-07-15T18:47:08;24.70;35.40
19174;DHT22;9719;49.322;8.536;2022-07-15T18:52:11;24.50;35.20
19174;DHT22;9719;49.322;8.536;2022-07-15T18:57:14;24.40;35.40
19174;DHT22;9719;49.322;8.536;2022-07-15T19:02:16;24.30;35.30
19174;DHT22;9719;49.322;8.536;2022-07-15T19:07:18;24.20;35.50
19174;DHT22;9719;49.322;8.536;2022-07-15T19:12:21;24.10;36.00
19174;DHT22;9719;49.322;8.536;2022-07-15T19:17:23;24.10;36.10
19174;DHT22;9719;49.322;8.536;2022-07-15T19:22:25;23.90;36.30
19174;DHT22;9719;49.322;8.536;2022-07-15T19:27:29;23.80;36.40
19174;DHT22;9719;49.322;8.536;2022-07-15T19:32:31;23.60;36.50
19174;DHT22;9719;49.322;8.536;2022-07-15T19:37:33;23.40;36.80
19174;DHT22;9719;49.322;8.536;2022-07-15T19:42:39;23.30;37.10
19174;DHT22;9719;49.322;8.536;2022-07-15T19:47:41;23.10;37.30
19174;DHT22;9719;49.322;8.536;2022-07-15T19:52:44;23.00;37.40
19174;DHT22;9719;49.322;8.536;2022-07-15T19:57:47;22.90;37.50
19174;DHT22;9719;49.322;8.536;2022-07-15T20:02:51;22.70;37.90
19174;DHT22;9719;49.322;8.536;2022-07-15T20:07:53;22.60;38.10
19174;DHT22;9719;49.322;8.536;2022-07-15T20:12:56;22.50;38.30
19174;DHT22;9719;49.322;8.536;2022-07-15T20:17:58;22.40;38.50
19174;DHT22;9719;49.322;8.536;2022-07-15T20:23:00;22.30;38.60
19174;DHT22;9719;49.322;8.536;2022-07-15T20:28:04;22.30;38.60
19174;DHT22;9719;49.322;8.536;2022-07-15T20:33:07;22.20;38.90
19174;DHT22;9719;49.322;8.536;2022-07-15T20:38:09;22.10;39.20
19174;DHT22;9719;49.322;8.536;2022-07-15T20:43:12;22.00;39.20
19174;DHT22;9719;49.322;8.536;2022-07-15T20:48:14;21.90;39.50
19174;DHT22;9719;49.322;8.536;2022-07-15T20:53:16;21.80;39.70
19174;DHT22;9719;49.322;8.536;2022-07-15T20:58:21;21.60;39.70
19174;DHT22;9719;49.322;8.536;2022-07-15T21:03:23;21.50;40.00
19174;DHT22;9719;49.322;8.536;2022-07-15T21:08:25;21.40;40.30
19174;DHT22;9719;49.322;8.536;2022-07-15T21:13:29;21.30;40.60
19174;DHT22;9719;49.322;8.536;2022-07-15T21:18:31;21.20;40.70
19174;DHT22;9719;49.322;8.536;2022-07-15T21:23:33;21.10;40.70
19174;DHT22;9719;49.322;8.536;2022-07-15T21:28:36;21.00;40.90
19174;DHT22;9719;49.322;8.536;2022-07-15T21:33:38;20.90;41.30
19174;DHT22;9719;49.322;8.536;2022-07-15T21:38:40;20.80;41.30
19174;DHT22;9719;49.322;8.536;2022-07-15T21:43:43;20.60;41.70
19174;DHT22;9719;49.322;8.536;2022-07-15T21:48:45;20.40;42.00
19174;DHT22;9719;49.322;8.536;2022-07-15T21:53:47;20.20;42.30
19174;DHT22;9719;49.322;8.536;2022-07-15T21:58:50;20.10;42.60
19174;DHT22;9719;49.322;8.536;2022-07-15T22:03:53;20.10;42.80
19174;DHT22;9719;49.322;8.536;2022-07-15T22:08:56;20.00;42.80
19174;DHT22;9719;49.322;8.536;2022-07-15T22:14:00;20.00;42.90
19174;DHT22;9719;49.322;8.536;2022-07-15T22:19:01;20.00;43.10
19174;DHT22;9719;49.322;8.536;2022-07-15T22:24:04;20.00;43.40
19174;DHT22;9719;49.322;8.536;2022-07-15T22:29:07;20.00;43.70
19174;DHT22;9719;49.322;8.536;2022-07-15T22:34:09;20.00;43.80
19174;DHT22;9719;49.322;8.536;2022-07-15T22:39:11;19.80;43.90
19174;DHT22;9719;49.322;8.536;2022-07-15T22:44:15;19.80;44.20
19174;DHT22;9719;49.322;8.536;2022-07-15T22:49:16;19.70;44.40
19174;DHT22;9719;49.322;8.536;2022-07-15T22:54:19;19.60;44.40
19174;DHT22;9719;49.322;8.536;2022-07-15T22:59:22;19.50;44.70
19174;DHT22;9719;49.322;8.536;2022-07-15T23:04:25;19.40;45.10
19174;DHT22;9719;49.322;8.536;2022-07-15T23:09:27;19.40;45.30
19174;DHT22;9719;49.322;8.536;2022-07-15T23:14:31;19.20;45.50
19174;DHT22;9719;49.322;8.536;2022-07-15T23:19:33;19.10;46.00
19174;DHT22;9719;49.322;8.536;2022-07-15T23:24:35;19.00;46.10
19174;DHT22;9719;49.322;8.536;2022-07-15T23:29:39;19.00;46.40
19174;DHT22;9719;49.322;8.536;2022-07-15T23:34:41;18.90;46.60
19174;DHT22;9719;49.322;8.536;2022-07-15T23:39:43;18.80;46.60
19174;DHT22;9719;49.322;8.536;2022-07-15T23:44:49;18.60;46.90
19174;DHT22;9719;49.322;8.536;2022-07-15T23:49:51;18.50;47.20
19174;DHT22;9719;49.322;8.536;2022-07-15T23:54:53;18.40;47.40
19174;DHT22;9719;49.322;8.536;2022-07-15T23:59:57;18.20;47.90
